Time;durP1;ratioP1;P1;durP2;ratioP2;P2;SDS_P1;SDS_P2;PMS_P1;PMS_P2;Temp;Humidity;BMP_temperature;BMP_pressure;BME280_temperature;BME280_humidity;BME280_pressure;Samples;Min_cycle;Max_cycle;Signal;HPM_P1;HPM_P2
2022/11/06 00:00:50;;;;;;;25.45;14.02;;;10.70;74.80;;;;;;5076105;28;20028;-77
2022/11/06 00:03:16;;;;;;;26.33;13.45;;;10.80;75.00;;;;;;5074449;28;20495;-76
2022/11/06 00:08:30;;;;;;;24.50;14.68;;;10.70;74.90;;;;;;5072753;28;20365;-77
2022/11/06 00:10:56;;;;;;;24.52;12.48;;;10.70;74.90;;;;;;5083875;28;20047;-77
2022/11/06 00:13:22;;;;;;;23.45;12.05;;;10.70;74.90;;;;;;5071293;28;20021;-77
2022/11/06 00:15:48;;;;;;;25.25;12.20;;;10.70;75.00;;;;;;5075470;28;20053;-78
2022/11/06 00:18:14;;;;;;;24.20;12.32;;;10.60;74.80;;;;;;5072908;28;20142;-77
2022/11/06 00:20:40;;;;;;;21.38;12.48;;;10.60;74.80;;;;;;5080822;28;20020;-77
2022/11/06 00:23:06;;;;;;;25.58;12.55;;;10.60;74.90;;;;;;5077907;28;20127;-78
2022/11/06 00:25:32;;;;;;;24.27;12.23;;;10.50;74.70;;;;;;5080881;28;20455;-78
2022/11/06 00:27:58;;;;;;;20.88;11.02;;;10.60;74.90;;;;;;5077248;28;20028;-78
2022/11/06 00:30:23;;;;;;;24.67;13.40;;;10.50;74.70;;;;;;5074953;28;20036;-77
2022/11/06 00:32:49;;;;;;;18.20;10.55;;;10.50;74.80;;;;;;5070998;28;20232;-78
2022/11/06 00:35:15;;;;;;;19.35;10.88;;;10.40;74.60;;;;;;5074581;28;20036;-78
2022/11/06 00:37:41;;;;;;;21.60;10.40;;;10.40;74.70;;;;;;5074669;28;20418;-78
2022/11/06 00:40:08;;;;;;;18.35;9.93;;;10.40;74.70;;;;;;5069005;28;20032;-78
2022/11/06 00:42:34;;;;;;;21.35;11.00;;;10.30;74.60;;;;;;5063431;28;20013;-77
2022/11/06 00:44:59;;;;;;;21.00;11.23;;;10.30;74.60;;;;;;5071070;28;20083;-78
2022/11/06 00:47:25;;;;;;;21.23;10.18;;;10.30;74.60;;;;;;5065679;28;20024;-78
2022/11/06 00:49:51;;;;;;;14.85;10.07;;;10.20;74.50;;;;;;5084718;28;20372;-78
2022/11/06 00:52:17;;;;;;;16.40;9.90;;;10.20;74.60;;;;;;5077512;28;20121;-77
2022/11/06 00:54:43;;;;;;;22.92;10.70;;;10.20;74.60;;;;;;5077698;28;20203;-77
2022/11/06 00:57:09;;;;;;;20.77;10.18;;;10.20;74.60;;;;;;5073025;28;20475;-79
2022/11/06 00:59:35;;;;;;;18.30;9.82;;;10.20;75.10;;;;;;5083072;28;20372;-78
2022/11/06 01:02:00;;;;;;;15.77;9.10;;;10.10;74.40;;;;;;5079809;28;20024;-79
2022/11/06 01:04:26;;;;;;;14.15;8.18;;;10.20;74.60;;;;;;5077945;28;20039;-78
2022/11/06 01:06:55;;;;;;;14.85;9.35;;;10.10;74.40;;;;;;5083964;28;20441;-78
2022/11/06 01:09:23;;;;;;;16.55;10.20;;;10.10;74.40;;;;;;5076957;28;20044;-78
2022/11/06 01:11:52;;;;;;;20.77;9.10;;;10.10;75.00;;;;;;5073343;28;20425;-78
2022/11/06 01:14:20;;;;;;;14.55;7.70;;;10.10;74.50;;;;;;5084517;28;20036;-78
2022/11/06 01:16:47;;;;;;;20.08;8.85;;;10.00;74.30;;;;;;5079664;28;20299;-78
2022/11/06 01:19:14;;;;;;;16.10;8.93;;;10.00;74.30;;;;;;5082150;28;20058;-77
2022/11/06 01:21:44;;;;;;;21.60;8.65;;;9.90;74.20;;;;;;5083058;28;20032;-78
2022/11/06 01:24:19;;;;;;;17.05;8.75;;;9.90;74.20;;;;;;5082841;28;20093;-77
2022/11/06 01:26:46;;;;;;;17.15;8.07;;;9.90;74.20;;;;;;5083600;28;20027;-78
2022/11/06 01:29:16;;;;;;;14.82;7.55;;;9.90;74.20;;;;;;5081182;28;20446;-78
2022/11/06 01:31:43;;;;;;;16.85;8.60;;;9.80;74.10;;;;;;5082321;28;20089;-78
2022/11/06 01:34:10;;;;;;;15.15;8.77;;;9.80;74.10;;;;;;5076953;28;20028;-78
2022/11/06 01:36:36;;;;;;;15.88;7.57;;;9.80;74.10;;;;;;5083794;28;20044;-79
2022/11/06 01:39:05;;;;;;;19.38;7.45;;;9.80;74.10;;;;;;5080280;28;20028;-77
2022/11/06 01:41:34;;;;;;;14.35;7.97;;;9.70;74.00;;;;;;5082417;28;20024;-77
2022/11/06 01:44:03;;;;;;;14.23;7.55;;;9.70;74.00;;;;;;5045050;28;20426;-77
2022/11/06 01:46:32;;;;;;;16.67;8.20;;;9.70;74.00;;;;;;5062487;28;20065;-79
2022/11/06 01:49:06;;;;;;;15.82;7.57;;;9.70;74.00;;;;;;5069684;28;20047;-78
2022/11/06 01:51:44;;;;;;;14.35;7.70;;;9.60;73.80;;;;;;5068810;28;20044;-76
2022/11/06 01:54:11;;;;;;;15.07;7.90;;;9.60;73.80;;;;;;5063192;28;20492;-77
2022/11/06 01:56:38;;;;;;;14.00;7.32;;;9.60;73.80;;;;;;5069183;28;20021;-78
2022/11/06 01:59:06;;;;;;;12.98;6.88;;;9.50;73.60;;;;;;5066933;28;20251;-77
2022/11/06 02:01:32;;;;;;;16.27;9.35;;;9.50;73.70;;;;;;5063790;28;20221;-77
2022/11/06 02:04:11;;;;;;;14.32;8.32;;;9.50;73.70;;;;;;5061882;28;21032;-79
2022/11/06 02:06:37;;;;;;;21.38;11.50;;;9.50;73.80;;;;;;5066568;28;20090;-77
2022/11/06 02:09:10;;;;;;;25.70;14.43;;;9.50;73.80;;;;;;5081591;28;20066;-79
2022/11/06 02:11:37;;;;;;;30.00;16.40;;;9.40;73.70;;;;;;5082090;28;20024;-78
2022/11/06 02:14:27;;;;;;;27.88;17.27;;;9.40;73.70;;;;;;5081291;28;20753;-77
2022/11/06 02:17:05;;;;;;;31.05;18.33;;;9.40;73.80;;;;;;5075156;28;20040;-77
2022/11/06 02:19:59;;;;;;;27.65;19.65;;;9.40;73.70;;;;;;5078672;28;20066;-77
2022/11/06 02:22:41;;;;;;;34.08;19.40;;;9.40;73.80;;;;;;5076972;28;20630;-76
2022/11/06 02:25:27;;;;;;;34.40;21.05;;;9.40;73.80;;;;;;5081939;28;20036;-78
2022/11/06 02:28:02;;;;;;;33.63;20.80;;;9.30;73.60;;;;;;5071760;28;20077;-77
2022/11/06 02:30:33;;;;;;;36.72;22.38;;;9.30;73.70;;;;;;5074745;28;20416;-77
2022/11/06 02:33:05;;;;;;;41.13;22.85;;;9.30;73.70;;;;;;5071394;28;20077;-78
2022/11/06 02:35:35;;;;;;;41.80;22.60;;;9.30;73.70;;;;;;5085539;28;20044;-78
2022/11/06 02:38:08;;;;;;;32.25;21.35;;;9.30;73.70;;;;;;5081940;28;20053;-77
2022/11/06 02:40:38;;;;;;;38.03;23.45;;;9.30;73.80;;;;;;5082100;28;20120;-78
2022/11/06 02:43:07;;;;;;;36.33;21.83;;;9.20;73.60;;;;;;5069939;28;20502;-77
2022/11/06 02:45:42;;;;;;;41.35;22.95;;;9.30;73.90;;;;;;5082798;28;20113;-77
2022/11/06 02:48:10;;;;;;;34.72;22.05;;;9.30;73.90;;;;;;5086212;28;20551;-77
2022/11/06 02:50:42;;;;;;;37.25;21.80;;;9.30;73.90;;;;;;5088786;28;20180;-78
2022/11/06 02:53:13;;;;;;;40.28;25.23;;;9.30;73.90;;;;;;5060573;28;20036;-77
2022/11/06 02:55:48;;;;;;;36.70;21.75;;;9.30;74.00;;;;;;5091501;28;20043;-77
2022/11/06 02:58:26;;;;;;;38.63;23.17;;;9.30;74.00;;;;;;5087521;28;20032;-77
2022/11/06 03:01:12;;;;;;;34.13;22.10;;;9.30;74.00;;;;;;5090533;28;20403;-77
2022/11/06 03:03:46;;;;;;;36.03;21.65;;;9.30;74.00;;;;;;5090307;28;20376;-78
2022/11/06 03:06:19;;;;;;;29.83;20.88;;;9.30;74.00;;;;;;5088759;28;20073;-77
2022/11/06 03:09:02;;;;;;;32.10;20.33;;;9.30;74.00;;;;;;5089894;28;20054;-78
2022/11/06 03:11:31;;;;;;;27.42;19.77;;;9.30;74.10;;;;;;5086229;28;20202;-77
2022/11/06 03:14:02;;;;;;;28.98;20.00;;;9.30;74.10;;;;;;5088365;28;20339;-77
2022/11/06 03:16:36;;;;;;;33.17;20.58;;;9.30;74.10;;;;;;5088949;28;20024;-78
2022/11/06 03:19:12;;;;;;;29.40;19.77;;;9.30;74.10;;;;;;5089669;28;20032;-77
2022/11/06 03:21:47;;;;;;;26.60;16.50;;;9.30;74.20;;;;;;5090106;28;20031;-76
2022/11/06 03:24:32;;;;;;;30.17;18.20;;;9.40;74.30;;;;;;5089805;28;20028;-78
2022/11/06 03:27:01;;;;;;;25.85;15.65;;;9.40;74.40;;;;;;5083028;28;20427;-77
2022/11/06 03:29:41;;;;;;;29.55;16.33;;;9.40;74.40;;;;;;5088769;28;20019;-80
2022/11/06 03:32:23;;;;;;;22.60;14.77;;;9.50;75.10;;;;;;5078595;28;20503;-80
2022/11/06 03:35:00;;;;;;;25.83;15.18;;;9.50;74.60;;;;;;5086792;28;20028;-82
2022/11/06 03:37:33;;;;;;;21.02;15.20;;;9.50;74.50;;;;;;5080558;28;20048;-78
2022/11/06 03:40:01;;;;;;;25.10;15.15;;;9.50;74.50;;;;;;5071091;28;20026;-79
2022/11/06 03:42:30;;;;;;;22.27;13.98;;;9.50;74.50;;;;;;5085273;28;20396;-78
2022/11/06 03:45:05;;;;;;;24.30;15.70;;;9.50;74.60;;;;;;5083862;28;20035;-78
2022/11/06 03:47:42;;;;;;;18.98;12.38;;;9.50;74.60;;;;;;5090504;28;20074;-78
2022/11/06 03:50:16;;;;;;;20.73;12.18;;;9.40;74.50;;;;;;5089440;28;20032;-78
2022/11/06 03:52:48;;;;;;;17.63;12.68;;;9.40;74.50;;;;;;5089438;28;20077;-78
2022/11/06 03:55:22;;;;;;;20.38;14.02;;;9.40;74.60;;;;;;5085476;28;20028;-78
2022/11/06 03:58:00;;;;;;;17.13;12.23;;;9.40;74.60;;;;;;5085430;28;20028;-77
2022/11/06 04:00:26;;;;;;;22.13;12.93;;;9.40;74.70;;;;;;5083580;28;20040;-77
2022/11/06 04:03:03;;;;;;;20.27;13.77;;;9.30;74.40;;;;;;5067986;28;20032;-77
2022/11/06 04:05:36;;;;;;;20.02;14.00;;;9.30;75.00;;;;;;5089221;28;20043;-76
2022/11/06 04:13:57;;;;;;;22.80;14.90;;;9.30;74.60;;;;;;5081724;28;20061;-77
2022/11/06 04:16:26;;;;;;;23.05;14.30;;;9.20;74.40;;;;;;5081381;28;20036;-77
2022/11/06 04:18:52;;;;;;;27.48;14.88;;;9.30;74.60;;;;;;5083488;28;20506;-76
2022/11/06 04:21:26;;;;;;;26.80;15.95;;;9.30;74.70;;;;;;5088974;28;20021;-77
2022/11/06 04:27:24;;;;;;;22.42;15.38;;;9.30;74.80;;;;;;5085254;28;20065;-78
2022/11/06 04:30:29;;;;;;;24.35;15.43;;;9.30;74.70;;;;;;5082785;28;20028;-77
2022/11/06 04:33:20;;;;;;;20.27;14.18;;;9.30;74.70;;;;;;5044447;28;20555;-77
2022/11/06 04:36:00;;;;;;;25.23;15.38;;;9.40;74.80;;;;;;5085603;28;20024;-78
2022/11/06 04:38:46;;;;;;;25.52;14.35;;;9.40;74.80;;;;;;5077726;28;20029;-78
2022/11/06 04:41:22;;;;;;;27.30;14.63;;;9.40;74.80;;;;;;5084595;28;20038;-77
2022/11/06 04:43:59;;;;;;;21.33;14.52;;;9.40;74.80;;;;;;5086651;28;20093;-77
2022/11/06 04:46:46;;;;;;;23.38;14.18;;;9.40;74.80;;;;;;5081882;28;20035;-77
2022/11/06 04:49:13;;;;;;;22.35;15.48;;;9.50;75.00;;;;;;5087288;28;20039;-77
2022/11/06 04:51:42;;;;;;;21.70;14.65;;;9.50;75.00;;;;;;5088682;28;20035;-76
2022/11/06 04:54:09;;;;;;;22.38;13.38;;;9.50;75.00;;;;;;5086919;28;20038;-77
2022/11/06 04:56:36;;;;;;;19.40;13.65;;;9.50;75.00;;;;;;5088402;28;20028;-76
2022/11/06 04:59:03;;;;;;;22.98;14.35;;;9.50;75.10;;;;;;5075310;28;20043;-76
2022/11/06 05:01:29;;;;;;;19.80;13.52;;;9.50;75.00;;;;;;5086414;28;20031;-77
2022/11/06 05:03:55;;;;;;;19.23;12.88;;;9.60;75.20;;;;;;5076317;28;20119;-76
2022/11/06 05:06:21;;;;;;;18.98;13.18;;;9.60;75.20;;;;;;5088888;28;20027;-76
2022/11/06 05:08:47;;;;;;;22.75;13.60;;;9.60;75.20;;;;;;5087661;28;20043;-76
2022/11/06 05:11:13;;;;;;;20.45;13.73;;;9.60;75.30;;;;;;5069793;28;20052;-78
2022/11/06 05:13:39;;;;;;;19.20;13.18;;;9.60;75.30;;;;;;5081360;28;20024;-78
2022/11/06 05:16:06;;;;;;;19.88;13.45;;;9.70;75.50;;;;;;5088211;28;20035;-76
2022/11/06 05:18:32;;;;;;;20.27;11.98;;;9.60;75.30;;;;;;5086811;28;20039;-78
2022/11/06 05:23:47;;;;;;;18.40;13.27;;;9.60;75.90;;;;;;5086347;28;20507;-77
2022/11/06 05:26:13;;;;;;;18.27;12.55;;;9.60;75.40;;;;;;5086683;28;20513;-79
2022/11/06 05:28:39;;;;;;;17.92;11.95;;;9.70;75.60;;;;;;5082512;28;20030;-78
2022/11/06 05:31:05;;;;;;;16.00;10.77;;;9.60;75.40;;;;;;5084549;28;20044;-76
2022/11/06 05:33:31;;;;;;;16.98;12.88;;;9.60;75.50;;;;;;5087443;28;20028;-77
2022/11/06 05:36:01;;;;;;;20.23;12.55;;;9.60;75.50;;;;;;5084018;28;20058;-77
2022/11/06 05:38:28;;;;;;;17.08;10.57;;;9.70;75.70;;;;;;5074626;28;20148;-77
2022/11/06 05:40:53;;;;;;;19.02;11.73;;;9.70;75.70;;;;;;5079176;28;20504;-76
2022/11/06 05:43:19;;;;;;;20.60;13.35;;;9.70;75.70;;;;;;5080837;28;20094;-77
2022/11/06 05:45:45;;;;;;;20.35;13.07;;;9.70;75.80;;;;;;5087573;28;20394;-78
2022/11/06 05:48:11;;;;;;;22.38;14.18;;;9.70;75.70;;;;;;5080052;28;20035;-76
2022/11/06 05:50:37;;;;;;;23.35;14.02;;;9.70;75.70;;;;;;5068641;28;20403;-77
2022/11/06 05:53:03;;;;;;;21.35;15.73;;;9.70;75.80;;;;;;5074670;28;20024;-77
2022/11/06 05:55:29;;;;;;;25.27;15.90;;;9.70;75.80;;;;;;5070360;28;20068;-77
2022/11/06 05:57:55;;;;;;;29.20;18.20;;;9.70;75.80;;;;;;5075149;28;20020;-77
2022/11/06 06:00:20;;;;;;;28.30;18.60;;;9.70;75.80;;;;;;5071504;28;20054;-77
2022/11/06 06:02:46;;;;;;;31.10;18.70;;;9.70;75.80;;;;;;5075787;28;20058;-76
2022/11/06 06:05:13;;;;;;;33.40;18.73;;;9.70;75.80;;;;;;5066770;28;20550;-77
2022/11/06 06:07:39;;;;;;;39.33;22.70;;;9.80;76.00;;;;;;5071267;28;20546;-76
2022/11/06 06:10:06;;;;;;;35.42;21.20;;;9.80;76.10;;;;;;5079023;28;20086;-76
2022/11/06 06:12:32;;;;;;;35.30;21.85;;;9.80;76.60;;;;;;5074591;28;20404;-76
2022/11/06 06:14:58;;;;;;;40.55;22.33;;;9.80;76.00;;;;;;5074262;28;20028;-76
2022/11/06 06:17:24;;;;;;;37.60;20.77;;;9.80;76.00;;;;;;5056537;28;20039;-76
2022/11/06 06:19:50;;;;;;;32.50;21.67;;;9.80;76.10;;;;;;5081081;28;20403;-76
2022/11/06 06:22:16;;;;;;;30.10;18.63;;;9.80;76.00;;;;;;5074023;28;20472;-76
2022/11/06 06:24:42;;;;;;;33.85;22.23;;;9.80;76.10;;;;;;5075640;28;20025;-76
2022/11/06 06:27:08;;;;;;;30.73;19.48;;;9.90;76.30;;;;;;5077957;28;20038;-76
2022/11/06 06:29:34;;;;;;;30.65;20.55;;;9.90;76.30;;;;;;5079488;28;20036;-79
2022/11/06 06:32:00;;;;;;;25.48;18.15;;;9.90;76.30;;;;;;5081311;28;20043;-77
2022/11/06 06:34:26;;;;;;;27.63;18.08;;;9.90;76.30;;;;;;5074508;28;20028;-83
2022/11/06 06:36:53;;;;;;;26.95;17.92;;;9.90;76.30;;;;;;5078814;28;20036;-81
2022/11/06 06:39:19;;;;;;;24.25;17.17;;;9.90;76.30;;;;;;5085430;28;20626;-80
2022/11/06 06:41:46;;;;;;;24.25;16.20;;;9.90;76.30;;;;;;5079210;28;20218;-81
2022/11/06 06:44:13;;;;;;;24.17;16.58;;;9.90;76.30;;;;;;5073759;28;20039;-82
2022/11/06 06:46:39;;;;;;;20.15;15.10;;;9.80;76.10;;;;;;5082026;28;20028;-81
2022/11/06 06:49:05;;;;;;;20.97;14.70;;;9.80;76.10;;;;;;5084929;28;20036;-79
2022/11/06 06:51:31;;;;;;;23.13;15.20;;;9.80;76.20;;;;;;5074823;28;20032;-79
2022/11/06 06:53:56;;;;;;;17.10;14.10;;;9.80;76.20;;;;;;5050027;28;20147;-93
2022/11/06 06:56:23;;;;;;;18.67;14.10;;;9.70;76.00;;;;;;5073733;28;20033;-85
2022/11/06 06:58:52;;;;;;;17.05;13.77;;;9.70;76.00;;;;;;5073857;28;20074;-82
2022/11/06 07:01:18;;;;;;;16.50;13.40;;;9.70;76.00;;;;;;5050748;28;20035;-82
2022/11/06 07:03:44;;;;;;;19.20;13.50;;;9.60;75.80;;;;;;5067993;28;20040;-85
2022/11/06 07:06:11;;;;;;;18.25;12.82;;;9.60;75.90;;;;;;5069681;28;20040;-84
2022/11/06 07:08:37;;;;;;;16.55;13.02;;;9.60;75.90;;;;;;5085655;28;20032;-87
2022/11/06 07:11:05;;;;;;;16.75;12.63;;;9.50;75.80;;;;;;5089872;28;20062;-89
2022/11/06 07:13:32;;;;;;;14.95;11.77;;;9.50;75.80;;;;;;5088958;28;20097;-90
2022/11/06 07:15:58;;;;;;;15.35;11.45;;;9.50;75.80;;;;;;5078790;28;20028;-81
2022/11/06 07:18:24;;;;;;;18.25;12.40;;;9.50;75.80;;;;;;5089092;28;20024;-77
2022/11/06 07:20:50;;;;;;;15.65;13.15;;;9.50;75.90;;;;;;5084614;28;20036;-86
2022/11/06 07:23:16;;;;;;;20.55;13.50;;;9.50;76.20;;;;;;5081890;28;20796;-86
2022/11/06 07:25:42;;;;;;;18.67;13.57;;;9.60;76.40;;;;;;5087035;28;20042;-76
2022/11/06 07:28:08;;;;;;;19.40;13.10;;;9.60;76.50;;;;;;5086766;28;20031;-77
2022/11/06 07:30:35;;;;;;;17.40;13.40;;;9.70;76.80;;;;;;5083377;28;20042;-78
2022/11/06 07:33:03;;;;;;;16.15;12.18;;;9.70;76.80;;;;;;5079400;28;20046;-80
2022/11/06 07:35:30;;;;;;;15.25;12.35;;;9.70;76.80;;;;;;5079750;28;20024;-81
2022/11/06 07:37:56;;;;;;;15.70;11.30;;;9.70;76.90;;;;;;5080003;28;20499;-75
2022/11/06 07:40:22;;;;;;;14.85;11.82;;;9.80;77.10;;;;;;5072549;28;20021;-76
2022/11/06 07:42:48;;;;;;;15.55;11.55;;;9.80;77.20;;;;;;5071987;28;20042;-76
2022/11/06 07:45:15;;;;;;;19.83;12.60;;;9.90;77.40;;;;;;5080447;28;20032;-76
2022/11/06 07:47:41;;;;;;;18.80;13.38;;;9.90;77.40;;;;;;5083478;28;20426;-76
2022/11/06 07:50:07;;;;;;;18.35;11.95;;;10.00;77.70;;;;;;5085431;28;20040;-75
2022/11/06 07:52:33;;;;;;;18.90;11.80;;;10.00;77.70;;;;;;5072887;28;20502;-76
2022/11/06 07:54:59;;;;;;;17.55;12.73;;;10.00;77.80;;;;;;5082799;28;20113;-76
2022/11/06 07:57:25;;;;;;;15.35;11.30;;;10.10;78.00;;;;;;5052992;28;20099;-75
2022/11/06 07:59:51;;;;;;;15.13;11.73;;;10.10;78.00;;;;;;5066874;28;20035;-75
2022/11/06 08:02:17;;;;;;;15.50;10.88;;;10.20;78.30;;;;;;5075647;28;20027;-77
2022/11/06 08:04:43;;;;;;;16.02;12.73;;;10.20;78.30;;;;;;5084318;28;20028;-76
2022/11/06 08:07:09;;;;;;;13.90;10.75;;;10.20;78.30;;;;;;5056547;28;20043;-76
2022/11/06 08:09:35;;;;;;;15.05;10.75;;;10.30;78.60;;;;;;5076893;28;20032;-76
2022/11/06 08:12:01;;;;;;;15.85;10.30;;;10.30;78.60;;;;;;5074944;28;20036;-75
2022/11/06 08:14:27;;;;;;;16.73;10.15;;;10.30;78.60;;;;;;5075637;28;20021;-76
2022/11/06 08:16:54;;;;;;;13.95;10.02;;;10.30;78.70;;;;;;5082584;28;20396;-76
2022/11/06 08:19:20;;;;;;;13.60;9.90;;;10.40;78.90;;;;;;5080724;28;20574;-76
2022/11/06 08:21:46;;;;;;;16.67;11.63;;;10.40;78.90;;;;;;5080722;28;20084;-76
2022/11/06 08:24:12;;;;;;;11.82;9.32;;;10.40;78.90;;;;;;5084954;28;20123;-76
2022/11/06 08:26:37;;;;;;;15.63;8.65;;;10.40;79.00;;;;;;5082983;28;20598;-76
2022/11/06 08:29:03;;;;;;;17.90;8.07;;;10.40;79.00;;;;;;5076859;28;20024;-76
2022/11/06 08:31:29;;;;;;;12.02;7.30;;;10.50;79.20;;;;;;5062596;28;20059;-76
2022/11/06 08:33:55;;;;;;;11.40;7.20;;;10.50;79.20;;;;;;5083424;28;20250;-75
2022/11/06 08:36:21;;;;;;;14.02;7.70;;;10.60;79.40;;;;;;5081200;28;20040;-76
2022/11/06 08:38:47;;;;;;;10.93;7.43;;;10.60;79.40;;;;;;5076351;28;20033;-76
2022/11/06 08:41:13;;;;;;;13.88;7.65;;;10.70;79.60;;;;;;5080325;28;20021;-75
2022/11/06 08:43:39;;;;;;;9.10;6.85;;;10.80;79.80;;;;;;5068945;28;20082;-75
2022/11/06 08:46:07;;;;;;;14.80;5.82;;;10.80;79.80;;;;;;5070499;28;20744;-76
2022/11/06 08:48:33;;;;;;;13.60;8.35;;;10.90;79.90;;;;;;5073096;28;20036;-76
2022/11/06 08:50:59;;;;;;;10.63;6.43;;;10.90;79.90;;;;;;5073946;28;21051;-76
2022/11/06 08:53:25;;;;;;;10.32;6.25;;;11.00;80.10;;;;;;5056174;28;20074;-76
2022/11/06 08:55:51;;;;;;;10.52;6.28;;;11.10;80.20;;;;;;5073773;28;20040;-76
2022/11/06 08:58:17;;;;;;;12.98;6.28;;;11.10;80.20;;;;;;5072119;28;20461;-76
2022/11/06 09:00:43;;;;;;;10.95;5.85;;;11.20;80.30;;;;;;5068530;28;20046;-76
2022/11/06 09:03:13;;;;;;;12.00;6.38;;;11.20;80.30;;;;;;5073508;28;20384;-75
2022/11/06 09:05:43;;;;;;;12.65;5.93;;;11.30;80.40;;;;;;5073572;28;20024;-75
2022/11/06 09:08:09;;;;;;;10.70;5.90;;;11.30;80.40;;;;;;5070727;28;20051;-75
2022/11/06 09:10:37;;;;;;;9.05;5.93;;;11.40;80.50;;;;;;5073738;28;20032;-75
2022/11/06 09:13:03;;;;;;;8.35;5.32;;;11.40;80.40;;;;;;5036247;28;20028;-78
2022/11/06 09:15:29;;;;;;;8.13;5.13;;;11.50;80.50;;;;;;5050009;28;20029;-75
2022/11/06 09:17:55;;;;;;;8.57;5.60;;;11.50;80.40;;;;;;5074322;28;20034;-75
2022/11/06 09:20:23;;;;;;;8.35;4.88;;;11.60;81.10;;;;;;5069098;28;20077;-74
2022/11/06 09:22:50;;;;;;;9.57;5.65;;;11.60;80.50;;;;;;5069996;28;20344;-76
2022/11/06 09:25:16;;;;;;;7.82;5.53;;;11.80;80.80;;;;;;5067994;28;20085;-76
2022/11/06 09:27:47;;;;;;;7.22;5.07;;;11.80;80.60;;;;;;5068633;28;20427;-75
2022/11/06 09:30:16;;;;;;;8.73;5.50;;;11.90;80.70;;;;;;5054655;28;20036;-76
2022/11/06 09:32:53;;;;;;;7.60;5.43;;;11.90;80.60;;;;;;5054917;28;20034;-75
2022/11/06 09:35:21;;;;;;;11.02;4.50;;;12.00;80.70;;;;;;5072031;28;20081;-75
2022/11/06 09:37:47;;;;;;;9.20;4.63;;;12.00;80.60;;;;;;5069220;28;20051;-75
2022/11/06 09:40:25;;;;;;;9.25;4.10;;;12.10;80.80;;;;;;5073077;28;20028;-82
2022/11/06 09:43:24;;;;;;;10.90;4.68;;;12.10;80.70;;;;;;5061821;28;20031;-81
2022/11/06 09:45:52;;;;;;;11.13;5.00;;;12.30;80.90;;;;;;5069171;28;20172;-80
2022/11/06 09:48:33;;;;;;;10.35;5.15;;;12.40;80.80;;;;;;5073287;28;20039;-78
2022/11/06 09:51:16;;;;;;;16.20;5.53;;;12.60;80.80;;;;;;5066588;28;20507;-78
2022/11/06 09:53:52;;;;;;;20.70;5.60;;;12.70;80.70;;;;;;5071443;28;20030;-78
2022/11/06 09:56:20;;;;;;;19.17;7.50;;;12.90;80.70;;;;;;5079386;28;20028;-78
2022/11/06 09:58:48;;;;;;;53.53;21.92;;;13.00;80.50;;;;;;5072633;28;20324;-86
2022/11/06 10:01:22;;;;;;;48.67;17.90;;;13.20;81.20;;;;;;5041002;28;20392;-79
2022/11/06 10:03:58;;;;;;;63.85;20.83;;;13.30;80.70;;;;;;5078698;28;20061;-78
2022/11/06 10:06:26;;;;;;;58.80;16.30;;;13.40;80.80;;;;;;5071748;28;20045;-84
2022/11/06 10:08:58;;;;;;;30.83;13.02;;;13.50;80.80;;;;;;5086187;28;20028;-89
2022/11/06 10:11:34;;;;;;;23.70;8.93;;;13.60;81.00;;;;;;5076850;28;20508;-77
2022/11/06 10:14:10;;;;;;;26.00;9.75;;;13.70;81.00;;;;;;5067134;28;20044;-80
2022/11/06 10:16:44;;;;;;;20.73;7.70;;;13.80;81.10;;;;;;5071491;28;20025;-86
2022/11/06 10:19:16;;;;;;;22.65;9.27;;;13.90;81.20;;;;;;5080165;28;20442;-84
2022/11/06 10:21:46;;;;;;;19.40;7.35;;;14.00;81.20;;;;;;5053650;28;20488;-84
2022/11/06 10:24:50;;;;;;;22.50;6.35;;;14.00;81.10;;;;;;5072416;28;20687;-83
2022/11/06 10:27:28;;;;;;;20.42;6.40;;;14.10;81.20;;;;;;5071491;28;20021;-85
2022/11/06 10:30:12;;;;;;;23.02;6.45;;;14.10;81.10;;;;;;5055343;28;20114;-77
2022/11/06 10:33:12;;;;;;;14.00;5.15;;;14.20;81.20;;;;;;5077330;28;20020;-79
2022/11/06 10:36:04;;;;;;;15.30;5.82;;;14.20;81.00;;;;;;5079272;28;20382;-86
2022/11/06 10:38:41;;;;;;;16.08;5.18;;;14.30;81.00;;;;;;5076653;28;20025;-84
2022/11/06 10:41:17;;;;;;;15.45;5.15;;;14.40;81.00;;;;;;5077181;28;20016;-85
2022/11/06 10:43:52;;;;;;;21.50;5.43;;;14.40;81.00;;;;;;5054957;28;20287;-84
2022/11/06 10:46:34;;;;;;;12.63;4.38;;;14.40;80.90;;;;;;5079613;28;20017;-86
2022/11/06 10:49:02;;;;;;;13.32;4.68;;;14.40;80.80;;;;;;5078089;28;20381;-82
2022/11/06 10:51:43;;;;;;;13.20;4.05;;;14.40;80.70;;;;;;5077877;28;20097;-79
2022/11/06 10:54:33;;;;;;;12.30;3.65;;;14.40;80.70;;;;;;5077683;28;20028;-79
2022/11/06 10:57:07;;;;;;;13.20;4.32;;;14.50;80.80;;;;;;5077831;28;20038;-78
2022/11/06 10:59:34;;;;;;;10.18;3.60;;;14.60;80.80;;;;;;5082605;28;20020;-80
2022/11/06 11:02:01;;;;;;;12.68;3.53;;;14.60;80.60;;;;;;5080232;28;20031;-85
2022/11/06 11:04:27;;;;;;;9.07;3.10;;;14.70;80.60;;;;;;5063012;28;20031;-78
2022/11/06 11:06:52;;;;;;;10.50;2.72;;;14.70;80.40;;;;;;5074800;28;20033;-79
2022/11/06 11:09:30;;;;;;;11.48;3.80;;;14.70;80.40;;;;;;5084800;28;20036;-79
2022/11/06 11:11:56;;;;;;;8.25;3.03;;;14.60;80.20;;;;;;5080456;28;20335;-79
2022/11/06 11:14:29;;;;;;;9.95;3.70;;;14.60;80.20;;;;;;5067984;28;20028;-88
2022/11/06 11:16:59;;;;;;;11.02;3.70;;;14.60;80.30;;;;;;5081706;28;20525;-81
2022/11/06 11:19:37;;;;;;;11.73;4.47;;;14.60;80.40;;;;;;5085505;28;20036;-77
2022/11/06 11:22:16;;;;;;;11.75;3.53;;;14.60;80.20;;;;;;5084028;28;20032;-83
2022/11/06 11:24:57;;;;;;;9.93;3.42;;;14.70;80.30;;;;;;5088571;28;20395;-81
2022/11/06 11:27:24;;;;;;;11.35;3.78;;;14.70;80.10;;;;;;5084739;28;20395;-80
2022/11/06 11:29:50;;;;;;;12.73;3.45;;;14.70;80.20;;;;;;5087168;28;20054;-80
2022/11/06 11:32:19;;;;;;;13.40;3.08;;;14.70;80.20;;;;;;5067476;28;20039;-82
2022/11/06 11:34:48;;;;;;;10.80;3.05;;;14.60;80.10;;;;;;5086716;28;20057;-79
2022/11/06 11:37:31;;;;;;;12.73;2.90;;;14.60;80.20;;;;;;5085628;28;20048;-79
2022/11/06 11:40:17;;;;;;;7.30;2.30;;;14.70;80.30;;;;;;5083323;28;20375;-80
2022/11/06 11:42:43;;;;;;;10.65;2.97;;;14.60;80.00;;;;;;5087689;28;20028;-77
2022/11/06 11:45:13;;;;;;;9.82;2.42;;;14.70;80.20;;;;;;5094789;28;20024;-81
2022/11/06 11:47:41;;;;;;;13.43;3.45;;;14.60;80.00;;;;;;5092820;28;20042;-82
2022/11/06 11:50:30;;;;;;;7.20;2.28;;;14.60;79.90;;;;;;5090160;28;20049;-83
2022/11/06 11:53:04;;;;;;;9.77;1.83;;;14.60;79.80;;;;;;5092377;28;20016;-84
2022/11/06 11:55:38;;;;;;;8.75;2.40;;;14.50;79.60;;;;;;5090474;28;20030;-85
2022/11/06 11:58:25;;;;;;;6.32;2.15;;;14.50;79.60;;;;;;5086879;28;20030;-83
2022/11/06 12:00:57;;;;;;;5.50;1.80;;;14.40;79.40;;;;;;5084588;28;20036;-81
2022/11/06 12:03:31;;;;;;;9.75;1.85;;;14.40;79.50;;;;;;5083803;28;20032;-83
2022/11/06 12:18:11;;;;;;;5.45;2.13;;;14.40;79.20;;;;;;5104481;27;20342;-79
2022/11/06 12:20:49;;;;;;;6.10;2.28;;;14.40;80.60;;;;;;5081039;28;20034;-79
2022/11/06 12:23:33;;;;;;;3.85;2.25;;;14.50;80.50;;;;;;5085079;28;20397;-78
2022/11/06 12:26:10;;;;;;;5.25;1.35;;;14.70;80.60;;;;;;5086346;28;20035;-80
2022/11/06 12:28:41;;;;;;;4.25;2.20;;;14.90;80.50;;;;;;5097923;28;20030;-78
2022/11/06 12:31:25;;;;;;;15.10;2.78;;;15.00;80.30;;;;;;5082243;28;20479;-76
2022/11/06 12:33:54;;;;;;;4.72;1.67;;;15.10;80.10;;;;;;5080399;28;20135;-75
2022/11/06 12:36:25;;;;;;;5.43;1.67;;;15.20;79.90;;;;;;5092572;28;20043;-75
2022/11/06 12:39:02;;;;;;;2.85;1.50;;;15.20;79.60;;;;;;5096808;28;20036;-77
2022/11/06 12:41:33;;;;;;;2.90;1.45;;;15.30;79.60;;;;;;5100838;28;20027;-72
2022/11/06 12:43:59;;;;;;;3.95;1.20;;;15.30;79.50;;;;;;5100826;28;20035;-75
2022/11/06 12:46:50;;;;;;;3.25;1.15;;;15.30;79.30;;;;;;5082273;28;20020;-77
2022/11/06 12:49:35;;;;;;;3.03;1.67;;;15.30;79.10;;;;;;5092935;28;20423;-76
2022/11/06 12:52:25;;;;;;;3.28;1.52;;;15.30;79.00;;;;;;5099559;28;20069;-79
2022/11/06 12:55:11;;;;;;;3.95;1.15;;;15.40;79.00;;;;;;5091082;28;20906;-79
2022/11/06 12:58:16;;;;;;;4.65;1.58;;;15.40;78.80;;;;;;5093356;28;20039;-75
2022/11/06 13:01:04;;;;;;;2.13;1.13;;;15.50;78.60;;;;;;5087845;28;20036;-73
2022/11/06 13:03:49;;;;;;;3.13;0.80;;;15.70;78.60;;;;;;5086593;28;20676;-79
2022/11/06 13:06:52;;;;;;;5.45;2.60;;;15.80;78.30;;;;;;5106066;28;20092;-75
2022/11/06 13:09:34;;;;;;;;;;;15.90;78.10;;;;;;5080498;28;20047;-76
2022/11/06 13:12:32;;;;;;;6.13;3.17;;;16.00;78.20;;;;;;5066926;28;20329;-75
2022/11/06 13:15:32;;;;;;;7.25;3.40;;;16.10;78.40;;;;;;5084095;28;20085;-74
2022/11/06 13:18:34;;;;;;;7.10;4.60;;;16.10;78.50;;;;;;5064940;28;20446;-75
2022/11/06 13:21:23;;;;;;;7.63;3.28;;;16.10;78.50;;;;;;5032574;28;20041;-76
2022/11/06 13:24:04;;;;;;;8.85;2.78;;;16.20;78.80;;;;;;5052586;28;20146;-80
2022/11/06 13:26:52;;;;;;;7.00;2.97;;;16.20;78.90;;;;;;5057957;28;20031;-78